Time;durP1;ratioP1;P1;durP2;ratioP2;P2;SDS_P1;SDS_P2;PMS_P1;PMS_P2;Temp;Humidity;BMP_temperature;BMP_pressure;BME280_temperature;BME280_humidity;BME280_pressure;Samples;Min_cycle;Max_cycle;Signal;HPM_P1;HPM_P2
2022/04/19 00:00:42;;;;;;;7.05;3.22;;;;;;;8.98;100.00;100261.53;6245799;23;20022;-63
2022/04/19 00:03:26;;;;;;;6.57;3.00;;;;;;;8.94;100.00;100254.47;6232356;23;20046;-63
2022/04/19 00:06:11;;;;;;;5.68;2.83;;;;;;;8.87;100.00;100248.34;6255574;23;20023;-65
2022/04/19 00:08:55;;;;;;;6.20;2.63;;;;;;;8.92;100.00;100250.97;6200909;23;20019;-63
2022/04/19 00:11:40;;;;;;;5.85;2.67;;;;;;;8.96;100.00;100245.66;6221768;23;20107;-63
2022/04/19 00:14:25;;;;;;;3.35;2.53;;;;;;;8.83;100.00;100238.66;6255526;23;20022;-63
2022/04/19 00:17:09;;;;;;;4.72;2.38;;;;;;;8.88;100.00;100243.94;6254983;23;20023;-63
2022/04/19 00:19:54;;;;;;;4.73;2.60;;;;;;;8.87;100.00;100237.75;6223186;23;20026;-63
2022/04/19 00:22:38;;;;;;;4.72;2.58;;;;;;;8.97;100.00;100233.31;6254582;23;20241;-63
2022/04/19 00:25:22;;;;;;;5.75;2.70;;;;;;;8.89;100.00;100213.97;6232605;23;20096;-61
2022/04/19 00:28:07;;;;;;;4.30;2.17;;;;;;;9.08;100.00;100245.59;6255131;23;20023;-62
2022/04/19 00:30:52;;;;;;;4.60;2.72;;;;;;;9.14;100.00;100244.69;6200574;23;20023;-62
2022/04/19 00:33:39;;;;;;;3.13;2.20;;;;;;;9.17;100.00;100252.56;6233317;23;20078;-64
2022/04/19 00:36:23;;;;;;;5.53;2.40;;;;;;;9.22;100.00;100249.00;6256897;23;20322;-64
2022/04/19 00:39:07;;;;;;;5.22;2.63;;;;;;;9.22;100.00;100242.84;6257252;23;20492;-63
2022/04/19 00:41:52;;;;;;;4.63;2.40;;;;;;;9.10;100.00;100225.28;6246970;23;20039;-63
2022/04/19 00:44:39;;;;;;;3.65;2.35;;;;;;;9.20;100.00;100247.25;6224230;23;20018;-63
2022/04/19 00:47:25;;;;;;;6.05;2.72;;;;;;;9.18;100.00;100249.06;6234241;23;20460;-63
2022/04/19 00:50:10;;;;;;;3.85;2.25;;;;;;;9.12;100.00;100244.69;6257259;23;20023;-63
2022/04/19 00:52:57;;;;;;;4.78;2.75;;;;;;;9.12;100.00;100244.69;6223627;23;20497;-64
2022/04/19 00:55:44;;;;;;;3.90;2.20;;;;;;;9.17;100.00;100240.22;6234863;23;20026;-63
2022/04/19 00:58:32;;;;;;;6.63;2.42;;;;;;;9.16;100.00;100246.41;6213787;23;20019;-64
2022/04/19 01:01:16;;;;;;;3.88;2.50;;;;;;;8.91;100.00;100205.13;6233992;23;20058;-63
2022/04/19 01:04:02;;;;;;;;;;;;;;;9.19;100.00;100234.94;6202886;23;20460;-62
2022/04/19 01:06:47;;;;;;;5.95;2.42;;;;;;;9.12;100.00;100234.09;6212930;23;19984;-61
2022/04/19 01:09:32;;;;;;;4.47;2.40;;;;;;;9.02;100.00;100228.88;6234042;23;20338;-63
2022/04/19 01:15:22;;;;;;;4.25;2.28;;;;;;;8.92;100.00;100221.88;6198855;23;20016;-62
2022/04/19 01:18:23;;;;;;;6.20;2.63;;;;;;;8.83;100.00;100221.94;6233502;23;20061;-62
2022/04/19 01:21:09;;;;;;;6.40;2.92;;;;;;;8.82;100.00;100214.88;6257361;23;20445;-62
2022/04/19 01:23:57;;;;;;;5.68;2.58;;;;;;;8.68;100.00;100185.00;6228757;23;20019;-63
2022/04/19 01:26:45;;;;;;;6.85;3.00;;;;;;;8.84;100.00;100215.75;6200978;23;20301;-63
2022/04/19 01:29:30;;;;;;;4.20;2.42;;;;;;;8.78;100.00;100207.84;6177266;23;20070;-63
2022/04/19 01:32:15;;;;;;;4.93;2.65;;;;;;;8.66;100.00;100208.81;6219634;23;20338;-63
2022/04/19 01:35:11;;;;;;;6.72;2.65;;;;;;;8.61;100.00;100202.69;6197744;23;20480;-63
2022/04/19 01:37:58;;;;;;;4.50;2.63;;;;;;;8.63;100.00;100198.25;6198432;23;20053;-63
2022/04/19 01:40:50;;;;;;;5.50;2.90;;;;;;;8.68;100.00;100209.69;6229633;23;20368;-63
2022/04/19 01:43:55;;;;;;;5.35;2.85;;;;;;;8.71;100.00;100211.44;6233860;23;20023;-63
2022/04/19 01:46:39;;;;;;;6.40;2.72;;;;;;;8.76;100.00;100213.19;6251259;23;20055;-62
2022/04/19 01:49:24;;;;;;;7.07;2.70;;;;;;;8.64;100.00;100186.81;6219271;23;20054;-62
2022/04/19 01:52:08;;;;;;;4.15;2.78;;;;;;;8.79;100.00;100207.84;6197695;23;20225;-63
2022/04/19 01:54:55;;;;;;;4.38;2.40;;;;;;;8.70;100.00;100188.50;6197731;23;20066;-63
2022/04/19 01:57:58;;;;;;;5.57;2.70;;;;;;;8.84;100.00;100218.41;6194975;23;20018;-62
2022/04/19 02:00:49;;;;;;;4.38;2.45;;;;;;;8.72;100.00;100221.13;6217066;23;20334;-66
2022/04/19 02:03:35;;;;;;;5.00;2.50;;;;;;;8.65;100.00;100224.69;6197679;23;20022;-63
2022/04/19 02:06:21;;;;;;;6.80;2.70;;;;;;;8.61;100.00;100231.75;6174446;23;20031;-63
2022/04/19 02:09:06;;;;;;;4.47;2.60;;;;;;;8.65;100.00;100235.25;6241094;23;20023;-63
2022/04/19 02:11:50;;;;;;;8.43;2.90;;;;;;;8.72;100.00;100235.22;6251883;23;20015;-62
2022/04/19 02:14:49;;;;;;;5.25;2.65;;;;;;;8.72;100.00;100229.06;6226321;23;20062;-66
2022/04/19 02:17:48;;;;;;;5.70;3.13;;;;;;;8.80;100.00;100235.19;6207660;23;20149;-63
2022/04/19 02:20:33;;;;;;;7.85;2.80;;;;;;;8.57;100.00;100207.97;6234064;23;20073;-62
2022/04/19 02:23:17;;;;;;;5.18;2.92;;;;;;;8.67;100.00;100234.34;6201283;23;20019;-63
2022/04/19 02:26:03;;;;;;;4.75;2.63;;;;;;;8.70;100.00;100244.91;6234076;23;20070;-62
2022/04/19 02:28:48;;;;;;;4.38;2.85;;;;;;;8.64;100.00;100233.50;6233078;23;20081;-62
2022/04/19 02:31:38;;;;;;;6.28;2.63;;;;;;;8.70;100.00;100233.44;6233043;23;20027;-62
2022/04/19 02:34:23;;;;;;;4.30;2.20;;;;;;;8.53;100.00;100216.81;6251657;23;20019;-63
2022/04/19 02:37:09;;;;;;;7.30;2.92;;;;;;;8.51;100.00;100210.66;6227931;23;20019;-62
2022/04/19 02:39:55;;;;;;;5.22;2.63;;;;;;;8.72;100.00;100244.91;6207852;23;20058;-63
2022/04/19 02:42:39;;;;;;;5.85;2.60;;;;;;;8.73;100.00;100247.56;6194814;23;20142;-63
2022/04/19 02:45:24;;;;;;;5.15;2.65;;;;;;;8.74;100.00;100258.97;6228630;23;20472;-62
2022/04/19 02:48:11;;;;;;;5.45;2.90;;;;;;;8.72;100.00;100260.78;6227685;23;20453;-63
2022/04/19 02:51:03;;;;;;;6.40;2.80;;;;;;;8.69;100.00;100263.44;6208419;23;20019;-71
2022/04/19 02:53:47;;;;;;;6.10;2.92;;;;;;;8.72;100.00;100260.78;6241256;23;20038;-63
2022/04/19 02:56:31;;;;;;;5.38;2.67;;;;;;;8.67;100.00;100254.63;6204781;23;20014;-63
2022/04/19 02:59:18;;;;;;;6.43;2.70;;;;;;;8.76;100.00;100267.81;6227943;23;20070;-64
2022/04/19 03:02:03;;;;;;;5.55;3.00;;;;;;;8.87;100.00;100261.56;6239644;23;20168;-63
2022/04/19 03:04:47;;;;;;;4.50;2.80;;;;;;;8.82;100.00;100265.13;6228112;23;20027;-66
2022/04/19 03:07:32;;;;;;;6.53;2.95;;;;;;;8.54;100.00;100230.03;6228361;23;20146;-65
2022/04/19 03:10:17;;;;;;;4.57;2.67;;;;;;;8.54;100.00;100231.78;6227933;23;20062;-72
2022/04/19 03:13:03;;;;;;;4.57;2.53;;;;;;;8.86;100.00;100270.38;6196941;23;20073;-63
2022/04/19 03:15:52;;;;;;;5.97;3.03;;;;;;;8.95;100.00;100264.19;6225433;23;20038;-62
2022/04/19 03:18:37;;;;;;;6.03;2.63;;;;;;;8.99;100.00;100258.84;6217350;23;20066;-63
2022/04/19 03:21:22;;;;;;;6.72;3.10;;;;;;;8.87;100.00;100239.56;6196511;23;20055;-63
2022/04/19 03:30:16;;;;;;;7.88;2.90;;;;;;;8.82;100.00;100260.72;6228150;23;20019;-63
2022/04/19 03:33:01;;;;;;;7.25;2.55;;;;;;;8.95;100.00;100272.13;6249048;23;20034;-63
2022/04/19 03:35:47;;;;;;;4.00;2.40;;;;;;;8.94;100.00;100273.88;6230543;23;20066;-63
2022/04/19 03:38:31;;;;;;;7.65;2.80;;;;;;;8.90;100.00;100274.78;6220959;23;20035;-64
2022/04/19 03:41:15;;;;;;;5.93;2.78;;;;;;;8.96;100.00;100276.50;6231201;23;20035;-65
2022/04/19 03:44:00;;;;;;;7.57;2.70;;;;;;;8.89;100.00;100261.56;6200590;23;20019;-64
2022/04/19 03:49:49;;;;;;;6.47;2.57;;;;;;;9.05;100.00;100264.13;6232530;23;20062;-63
2022/04/19 03:52:37;;;;;;;5.93;2.95;;;;;;;9.08;100.00;100277.34;6201117;23;20019;-63
2022/04/19 03:55:24;;;;;;;6.53;2.60;;;;;;;9.12;100.00;100273.78;6200889;23;20082;-65
2022/04/19 03:58:09;;;;;;;4.78;2.67;;;;;;;9.17;100.00;100274.63;6232624;23;20102;-67
2022/04/19 04:00:54;;;;;;;5.60;2.80;;;;;;;9.22;100.00;100275.47;6211597;23;20441;-66
2022/04/19 04:03:38;;;;;;;5.90;2.80;;;;;;;9.22;100.00;100271.97;6180035;23;20023;-68
2022/04/19 04:06:25;;;;;;;7.45;2.80;;;;;;;9.30;100.00;100267.50;6200852;23;20092;-67
2022/04/19 04:09:10;;;;;;;5.65;2.58;;;;;;;9.23;100.00;100263.97;6202840;23;20035;-73
2022/04/19 04:11:55;;;;;;;7.15;2.80;;;;;;;9.09;100.00;100243.81;6187170;23;20014;-68
2022/04/19 04:14:41;;;;;;;3.72;2.10;;;;;;;9.24;100.00;100265.75;6227645;23;20302;-64
2022/04/19 04:17:28;;;;;;;7.72;2.88;;;;;;;9.39;100.00;100264.78;6225437;23;20023;-64
2022/04/19 04:20:14;;;;;;;3.78;2.25;;;;;;;9.46;100.00;100277.06;6224486;23;20125;-65
2022/04/19 04:22:58;;;;;;;6.68;2.55;;;;;;;9.36;100.00;100243.63;6234010;23;20118;-64
2022/04/19 04:25:43;;;;;;;7.43;2.47;;;;;;;9.60;100.00;100277.84;6233927;23;20030;-63
2022/04/19 04:28:28;;;;;;;5.15;2.22;;;;;;;9.53;100.00;100265.53;6234254;23;20027;-64
2022/04/19 04:31:13;;;;;;;6.22;2.28;;;;;;;9.65;100.00;100289.25;6202892;23;20023;-64
2022/04/19 04:33:59;;;;;;;6.28;2.35;;;;;;;9.74;100.00;100283.00;6233812;23;20319;-64
2022/04/19 04:36:44;;;;;;;3.58;2.28;;;;;;;9.75;100.00;100285.66;6223625;23;20151;-63
2022/04/19 04:39:34;;;;;;;4.68;2.13;;;;;;;9.89;100.00;100285.53;6223506;23;20022;-63
2022/04/19 04:42:37;;;;;;;4.18;1.95;;;;;;;9.71;100.00;100270.69;6224237;23;20043;-66
2022/04/19 04:45:27;;;;;;;5.03;2.17;;;;;;;9.70;100.00;100278.63;6214588;23;20085;-64
2022/04/19 04:51:17;;;;;;;3.38;1.85;;;;;;;9.53;100.00;100273.47;6256446;23;20085;-65
2022/04/19 04:54:02;;;;;;;4.63;2.30;;;;;;;9.52;100.00;100255.84;6234012;23;20098;-63
2022/04/19 04:56:48;;;;;;;5.90;2.55;;;;;;;9.77;100.00;100277.69;6233449;23;20042;-63
2022/04/19 04:59:34;;;;;;;2.50;1.95;;;;;;;9.74;100.00;100285.66;6256383;23;20019;-68
2022/04/19 05:02:22;;;;;;;5.95;2.22;;;;;;;9.79;100.00;100279.44;6180702;23;20019;-64
2022/04/19 05:05:07;;;;;;;7.40;2.88;;;;;;;9.86;100.00;100286.44;6232948;23;20426;-64
2022/04/19 05:07:51;;;;;;;6.43;2.53;;;;;;;9.80;100.00;100283.84;6233260;23;20035;-64
2022/04/19 05:10:36;;;;;;;6.32;2.30;;;;;;;9.78;100.00;100276.81;6212170;23;20491;-63
2022/04/19 05:13:27;;;;;;;8.30;2.45;;;;;;;9.77;100.00;100286.50;6201988;23;20054;-63
2022/04/19 05:16:12;;;;;;;7.18;2.40;;;;;;;9.73;100.00;100257.44;6256170;23;20034;-63
2022/04/19 05:18:57;;;;;;;;;;;;;;;9.92;100.00;100283.72;6233839;23;20061;-63
2022/04/19 05:21:41;;;;;;;7.22;2.78;;;;;;;9.89;100.00;100274.94;6256189;23;20256;-64
2022/04/19 05:24:28;;;;;;;6.75;2.53;;;;;;;9.91;100.00;100284.63;6256360;23;20111;-64
2022/04/19 05:27:13;;;;;;;7.28;2.20;;;;;;;9.93;100.00;100277.53;6233896;23;20018;-64
2022/04/19 05:29:58;;;;;;;9.18;2.30;;;;;;;9.93;100.00;100255.47;6233733;23;20015;-64
2022/04/19 05:32:42;;;;;;;8.70;2.38;;;;;;;10.21;100.00;100284.34;6233708;23;20019;-64
2022/04/19 05:35:27;;;;;;;8.75;2.38;;;;;;;10.20;100.00;100277.28;6233693;23;20094;-62
2022/04/19 05:38:11;;;;;;;3.67;1.80;;;;;;;10.23;100.00;100277.28;6233605;23;20513;-64
2022/04/19 05:40:56;;;;;;;6.65;1.80;;;;;;;10.26;100.00;100274.59;6233788;23;20035;-63
2022/04/19 05:43:41;;;;;;;5.95;1.90;;;;;;;10.16;100.00;100250.88;6211755;23;20390;-63
2022/04/19 05:46:26;;;;;;;5.85;2.42;;;;;;;10.41;100.00;100278.84;6233791;23;20022;-63
2022/04/19 05:49:11;;;;;;;6.07;1.80;;;;;;;10.47;100.00;100281.41;6233333;23;20499;-63
2022/04/19 05:51:58;;;;;;;3.33;1.80;;;;;;;10.52;100.00;100279.59;6233219;23;20019;-64
2022/04/19 05:54:42;;;;;;;5.43;1.70;;;;;;;10.54;100.00;100278.69;6233530;23;20073;-63
2022/04/19 05:57:27;;;;;;;10.73;1.98;;;;;;;10.53;100.00;100276.94;6223084;23;20023;-64
2022/04/19 06:00:12;;;;;;;5.53;1.70;;;;;;;10.55;100.00;100261.88;6256026;23;20414;-63
2022/04/19 06:06:08;;;;;;;6.28;1.80;;;;;;;10.98;100.00;100289.63;6233292;23;20073;-62
2022/04/19 06:08:56;;;;;;;5.85;1.63;;;;;;;11.02;100.00;100279.81;6232801;23;20066;-63
2022/04/19 06:11:40;;;;;;;8.90;2.15;;;;;;;11.13;100.00;100285.88;6202141;23;20018;-64
2022/04/19 06:14:30;;;;;;;6.50;2.10;;;;;;;11.27;100.00;100287.44;6233336;23;20066;-66
2022/04/19 06:17:21;;;;;;;10.02;1.77;;;;;;;11.33;100.00;100287.34;6201901;23;20026;-64
2022/04/19 06:20:07;;;;;;;4.35;1.60;;;;;;;11.41;100.00;100288.13;6233191;23;20031;-64
2022/04/19 06:22:52;;;;;;;5.90;1.90;;;;;;;11.55;100.00;100290.56;6201190;23;20027;-64
2022/04/19 06:25:37;;;;;;;3.55;1.83;;;;;;;11.69;100.00;100284.16;6233302;23;20027;-63
2022/04/19 06:28:22;;;;;;;5.45;1.70;;;;;;;11.64;100.00;100286.03;6245597;23;20027;-65
2022/04/19 06:31:25;;;;;;;9.05;2.90;;;;;;;11.87;100.00;100289.16;6256196;23;20086;-64
2022/04/19 06:34:22;;;;;;;6.43;2.65;;;;;;;11.83;100.00;100295.41;6222964;23;20445;-63
2022/04/19 06:37:22;;;;;;;5.55;2.10;;;;;;;11.45;100.00;100276.53;6233079;23;20051;-63
2022/04/19 06:40:14;;;;;;;4.20;2.25;;;;;;;11.56;100.00;100308.25;6232994;23;20066;-64
2022/04/19 06:42:59;;;;;;;5.40;2.40;;;;;;;11.56;100.00;100306.47;6245406;23;20089;-64
2022/04/19 06:45:46;;;;;;;9.85;2.35;;;;;;;11.57;100.00;100296.72;6245742;23;20464;-62
2022/04/19 06:48:41;;;;;;;;;;;;;;;11.69;100.00;100309.84;6233303;23;20029;-64
2022/04/19 06:51:26;;;;;;;4.93;2.50;;;;;;;11.71;100.00;100297.41;6255561;23;19910;-62
2022/04/19 06:54:12;;;;;;;10.10;3.03;;;;;;;11.56;100.00;100281.69;6222802;23;20027;-64
2022/04/19 06:57:03;;;;;;;10.23;2.83;;;;;;;11.77;100.00;100297.31;6255599;23;20022;-63
2022/04/19 06:59:47;;;;;;;6.15;2.25;;;;;;;11.95;100.00;100302.31;6181122;23;20323;-64
2022/04/19 07:02:32;;;;;;;4.65;1.95;;;;;;;12.00;100.00;100296.03;6201728;23;20023;-64
2022/04/19 07:05:45;;;;;;;6.00;1.77;;;;;;;12.04;100.00;100295.06;6133578;23;20076;-63
2022/04/19 07:08:30;;;;;;;8.30;2.25;;;;;;;12.02;100.00;100298.63;6112038;23;20017;-67
2022/04/19 07:11:16;;;;;;;4.18;1.98;;;;;;;12.00;100.00;100295.16;6112706;23;20024;-65
2022/04/19 07:14:09;;;;;;;5.95;2.90;;;;;;;12.05;100.00;100298.59;6132944;23;20020;-64
2022/04/19 07:17:13;;;;;;;8.05;2.50;;;;;;;11.89;100.00;100273.19;6122651;23;20357;-64
2022/04/19 07:29:20;;;;;;;3.83;1.83;;;;;;;11.72;100.00;100286.78;6112593;23;20336;-64
2022/04/19 07:32:08;;;;;;;6.00;2.40;;;;;;;11.56;100.00;100265.75;6112838;23;20073;-64
2022/04/19 07:35:15;;;;;;;7.05;2.70;;;;;;;11.64;100.00;100296.66;6107182;23;20065;-65
2022/04/19 07:38:00;;;;;;;5.35;2.85;;;;;;;11.70;100.00;100295.63;6112129;23;20421;-69
2022/04/19 07:40:56;;;;;;;8.13;2.88;;;;;;;11.71;100.00;100311.56;6127217;23;20021;-63
2022/04/19 07:43:43;;;;;;;7.25;2.72;;;;;;;11.66;100.00;100315.19;6233040;23;20019;-63
2022/04/19 07:46:28;;;;;;;7.57;2.60;;;;;;;11.66;100.00;100305.44;6232835;23;20023;-63
2022/04/19 07:49:13;;;;;;;5.43;2.08;;;;;;;11.80;100.00;100313.19;6255940;23;20433;-63
2022/04/19 07:51:59;;;;;;;5.85;2.05;;;;;;;11.85;100.00;100314.88;6222962;23;20323;-63
2022/04/19 07:54:43;;;;;;;5.90;2.10;;;;;;;11.93;100.00;100326.25;6232352;23;20034;-63
2022/04/19 07:57:28;;;;;;;5.65;2.15;;;;;;;11.89;100.00;100329.88;6232328;23;20082;-63
2022/04/19 08:00:15;;;;;;;12.48;2.72;;;;;;;11.61;100.00;100304.66;6180559;23;20015;-63
2022/04/19 08:03:06;;;;;;;5.93;2.30;;;;;;;11.64;100.00;100322.31;6181080;23;20023;-63
2022/04/19 08:05:51;;;;;;;7.32;2.25;;;;;;;11.86;100.00;100329.03;6222265;23;20089;-63
2022/04/19 08:08:37;;;;;;;6.10;2.60;;;;;;;11.72;100.00;100326.63;6232335;23;20465;-63
2022/04/19 08:11:21;;;;;;;5.93;2.38;;;;;;;11.74;100.00;100319.50;6232458;23;20095;-64
2022/04/19 08:14:07;;;;;;;5.47;2.40;;;;;;;11.88;100.00;100340.53;6180670;23;20082;-63
2022/04/19 08:16:52;;;;;;;6.93;2.85;;;;;;;11.85;100.00;100338.81;6231879;23;20019;-64
2022/04/19 08:19:36;;;;;;;8.65;2.42;;;;;;;11.75;100.00;100302.63;6200918;23;20024;-63
2022/04/19 08:22:22;;;;;;;4.60;2.35;;;;;;;11.83;100.00;100335.28;6255139;23;20015;-64
2022/04/19 08:25:16;;;;;;;8.02;2.08;;;;;;;11.72;100.00;100310.69;6232027;23;20023;-63
2022/04/19 08:28:00;;;;;;;6.38;2.50;;;;;;;11.63;100.00;100304.63;6232750;23;20215;-64
2022/04/19 08:30:45;;;;;;;6.78;2.92;;;;;;;11.74;100.00;100330.13;6201854;23;20066;-64
2022/04/19 08:33:35;;;;;;;11.18;2.67;;;;;;;11.82;100.00;100332.63;6201780;23;20114;-66
2022/04/19 08:36:21;;;;;;;6.82;2.42;;;;;;;11.81;100.00;100322.91;6232495;23;20457;-64
2022/04/19 08:39:05;;;;;;;5.25;2.40;;;;;;;11.95;100.00;100323.59;6255694;23;20027;-63
2022/04/19 08:41:50;;;;;;;7.20;2.55;;;;;;;11.99;100.00;100320.84;6222632;23;20073;-63
2022/04/19 08:44:37;;;;;;;3.78;2.45;;;;;;;12.04;100.00;100321.66;6181528;23;20299;-68
2022/04/19 08:47:23;;;;;;;4.57;2.30;;;;;;;11.95;100.00;100297.88;6254882;23;20016;-62
2022/04/19 08:50:12;;;;;;;7.57;2.90;;;;;;;12.04;100.00;100313.69;6254810;23;20019;-63
2022/04/19 08:59:04;;;;;;;5.05;2.53;;;;;;;12.29;100.00;100271.56;6218617;23;20078;-68
2022/04/19 09:01:48;;;;;;;6.00;2.47;;;;;;;12.46;100.00;100267.66;6251694;23;20035;-64
2022/04/19 09:04:33;;;;;;;10.50;3.65;;;;;;;12.81;100.00;100296.22;6249447;23;20067;-63
2022/04/19 09:07:18;;;;;;;7.93;3.33;;;;;;;12.88;100.00;100285.44;6251617;23;20019;-66
2022/04/19 09:10:03;;;;;;;9.35;3.45;;;;;;;12.91;100.00;100293.38;6240710;23;20027;-64
2022/04/19 09:13:04;;;;;;;7.30;2.97;;;;;;;12.74;100.00;100263.53;6252005;23;20023;-64
2022/04/19 09:15:49;;;;;;;13.32;3.33;;;;;;;13.00;100.00;100293.19;6229288;23;20023;-63
2022/04/19 09:18:36;;;;;;;11.18;3.13;;;;;;;13.09;100.00;100292.97;6217095;23;20296;-64
2022/04/19 09:21:37;;;;;;;9.45;2.70;;;;;;;13.47;100.00;100295.69;6251961;23;20059;-65
2022/04/19 09:24:23;;;;;;;6.10;2.55;;;;;;;13.66;100.00;100299.63;6176564;23;20022;-64
2022/04/19 09:27:07;;;;;;;9.35;2.45;;;;;;;13.86;100.00;100289.34;6249713;23;20022;-65
2022/04/19 09:29:53;;;;;;;5.03;2.17;;;;;;;14.19;100.00;100295.63;6251841;23;20081;-67
2022/04/19 09:32:37;;;;;;;7.13;2.80;;;;;;;14.41;100.00;100296.84;6218840;23;20100;-64
2022/04/19 09:35:37;;;;;;;5.93;2.70;;;;;;;14.40;100.00;100288.88;6197570;23;20333;-64
2022/04/19 09:38:49;;;;;;;5.30;2.30;;;;;;;14.62;100.00;100296.25;6155645;23;20020;-68
2022/04/19 09:41:33;;;;;;;4.28;2.00;;;;;;;14.27;100.00;100260.81;6218422;23;20070;-63
2022/04/19 09:44:18;;;;;;;7.38;2.35;;;;;;;14.45;100.00;100289.63;6250732;23;20720;-65
2022/04/19 09:47:06;;;;;;;6.38;2.20;;;;;;;14.37;100.00;100287.19;6197637;23;20069;-64
2022/04/19 09:49:53;;;;;;;5.13;2.13;;;;;;;14.24;100.00;100267.06;6175867;23;20092;-64
2022/04/19 09:52:43;;;;;;;7.00;2.20;;;;;;;14.71;100.00;100301.34;6249226;23;20078;-70
2022/04/19 09:55:29;;;;;;;6.00;2.47;;;;;;;14.76;100.00;100271.84;6197236;23;20035;-64
2022/04/19 09:58:15;;;;;;;7.38;2.05;;;;;;;14.89;100.00;100306.16;6218021;23;20285;-63
2022/04/19 10:01:01;;;;;;;5.93;1.80;;;;;;;14.78;100.00;100310.94;6241054;23;20023;-63
2022/04/19 10:09:53;;;;;;;7.20;1.80;;;;;;;15.36;100.00;100313.69;6248147;23;20319;-62
2022/04/19 10:12:39;;;;;;;5.57;2.42;;;;;;;15.39;100.00;100305.53;6251010;23;20570;-64
2022/04/19 10:15:24;;;;;;;5.57;2.13;;;;;;;15.35;100.00;100311.91;6218107;23;20107;-64
2022/04/19 10:18:09;;;;;;;;;;;;;;;15.49;100.00;100322.19;6251024;23;20327;-64
2022/04/19 10:21:00;;;;;;;5.32;2.55;;;;;;;15.37;100.00;100304.72;6240745;23;20349;-64
2022/04/19 10:23:47;;;;;;;4.90;2.17;;;;;;;15.26;100.00;100288.13;6248657;23;20389;-63
2022/04/19 10:26:40;;;;;;;5.88;2.33;;;;;;;15.57;100.00;100306.78;6228255;23;20024;-64
2022/04/19 10:29:28;;;;;;;3.95;1.85;;;;;;;15.62;100.00;100311.06;6251091;23;20026;-64
2022/04/19 10:32:13;;;;;;;6.40;2.08;;;;;;;15.86;100.00;100304.06;6248734;23;20019;-72
2022/04/19 10:35:03;;;;;;;6.88;2.03;;;;;;;16.29;100.00;100304.34;6251033;23;20023;-64
2022/04/19 10:38:20;;;;;;;5.63;2.00;;;;;;;17.17;100.00;100311.81;6216866;23;20444;-63
2022/04/19 10:41:05;;;;;;;6.10;2.10;;;;;;;18.71;100.00;100274.06;6207060;23;20277;-64
2022/04/19 10:44:20;;;;;;;7.78;2.03;;;;;;;19.60;95.41;100284.22;6250557;23;20023;-63
2022/04/19 10:47:13;;;;;;;5.03;1.73;;;;;;;18.93;96.67;100273.97;6250645;23;20078;-65
2022/04/19 10:50:07;;;;;;;6.75;2.30;;;;;;;19.43;94.36;100285.97;6228121;23;20111;-65
2022/04/19 10:52:57;;;;;;;6.47;1.90;;;;;;;19.22;92.03;100277.03;6256948;23;20019;-66
2022/04/19 10:55:58;;;;;;;4.85;1.88;;;;;;;18.98;94.42;100275.50;6222413;23;20050;-66
2022/04/19 10:58:44;;;;;;;4.80;2.08;;;;;;;18.95;95.10;100282.84;6245699;23;20062;-64
2022/04/19 11:01:31;;;;;;;8.93;1.90;;;;;;;19.66;91.70;100280.34;6256302;23;20022;-65
2022/04/19 11:04:51;;;;;;;6.65;2.00;;;;;;;21.15;84.07;100278.81;6209077;23;20085;-65
2022/04/19 11:07:41;;;;;;;5.10;1.60;;;;;;;21.33;80.37;100273.25;6083261;23;20025;-65
2022/04/19 11:10:46;;;;;;;5.95;1.90;;;;;;;21.93;78.90;100283.34;6081731;23;20507;-65
2022/04/19 11:13:35;;;;;;;12.63;2.20;;;;;;;21.36;77.70;100275.78;6086142;23;20121;-67
2022/04/19 11:16:37;;;;;;;2.42;1.90;;;;;;;21.72;78.39;100276.44;6064579;23;20024;-67
2022/04/19 11:19:25;;;;;;;4.00;1.63;;;;;;;22.11;74.09;100269.69;6023884;23;20050;-65
2022/04/19 11:22:24;;;;;;;5.50;2.05;;;;;;;21.95;76.09;100267.91;6076638;23;20069;-63
2022/04/19 11:25:09;;;;;;;4.72;1.70;;;;;;;21.89;74.66;100275.50;6099223;23;20137;-64
2022/04/19 11:27:53;;;;;;;6.35;1.75;;;;;;;21.70;75.45;100272.06;6096469;23;20029;-65
2022/04/19 11:30:58;;;;;;;6.97;1.85;;;;;;;21.53;76.78;100273.00;6058193;23;20354;-64
2022/04/19 11:33:43;;;;;;;6.00;2.07;;;;;;;21.12;76.79;100260.09;6084184;23;20160;-64
2022/04/19 11:36:27;;;;;;;7.07;1.70;;;;;;;20.69;78.02;100266.91;6065928;23;20306;-64
2022/04/19 11:48:37;;;;;;;3.55;1.30;;;;;;;19.69;84.70;100267.59;6219358;23;20024;-65
2022/04/19 11:51:22;;;;;;;7.47;1.60;;;;;;;19.59;85.10;100266.34;6185217;23;20454;-65
2022/04/19 11:54:08;;;;;;;2.58;1.50;;;;;;;19.42;86.57;100255.50;6197034;23;20027;-64
2022/04/19 11:56:54;;;;;;;4.97;1.83;;;;;;;19.72;84.86;100263.88;6217145;23;20024;-64
2022/04/19 11:59:43;;;;;;;6.15;1.60;;;;;;;19.70;85.09;100265.81;6196707;23;20019;-65
2022/04/19 12:02:28;;;;;;;5.32;1.60;;;;;;;19.59;85.06;100263.63;6186936;23;20063;-64
2022/04/19 12:05:25;;;;;;;5.03;1.30;;;;;;;19.70;86.05;100274.72;6219025;23;20092;-66
2022/04/19 12:08:10;;;;;;;6.05;1.70;;;;;;;19.49;86.38;100264.13;6219502;23;20071;-64
2022/04/19 12:10:55;;;;;;;9.20;1.75;;;;;;;19.16;87.93;100249.59;6219110;23;20397;-64
2022/04/19 12:13:42;;;;;;;2.25;1.50;;;;;;;19.26;88.46;100259.00;6165963;23;20024;-64
2022/04/19 12:16:35;;;;;;;2.58;1.30;;;;;;;19.22;89.29;100268.97;6219587;23;20028;-64
2022/04/19 12:19:40;;;;;;;3.85;1.45;;;;;;;18.97;91.09;100265.69;6184285;23;20032;-64
2022/04/19 12:22:25;;;;;;;6.55;1.27;;;;;;;18.46;94.39;100273.41;6195385;23;20027;-67
2022/04/19 12:25:09;;;;;;;5.43;1.58;;;;;;;18.43;94.64;100268.16;6208903;23;20492;-65
2022/04/19 12:27:55;;;;;;;2.63;1.60;;;;;;;18.25;94.82;100246.59;6216871;23;20024;-64
2022/04/19 12:30:47;;;;;;;5.45;1.50;;;;;;;18.39;95.07;100274.63;6219453;23;20078;-64
2022/04/19 12:33:31;;;;;;;9.15;1.85;;;;;;;18.11;96.57;100260.59;6167874;23;20023;-63
2022/04/19 12:36:16;;;;;;;5.53;1.58;;;;;;;18.09;97.25;100274.09;6188534;23;20027;-68
2022/04/19 12:39:02;;;;;;;11.02;1.95;;;;;;;18.19;97.46;100265.66;6198787;23;20051;-64
2022/04/19 12:41:49;;;;;;;5.25;1.90;;;;;;;17.89;99.76;100257.94;6219244;23;20279;-69
2022/04/19 12:44:35;;;;;;;5.82;2.10;;;;;;;17.85;99.99;100261.69;6188994;23;20067;-64
2022/04/19 12:47:26;;;;;;;4.20;1.98;;;;;;;18.07;100.00;100267.03;6198098;23;20331;-64
2022/04/19 12:50:13;;;;;;;3.00;1.67;;;;;;;18.09;99.45;100274.09;6220682;23;20339;-64
2022/04/19 12:52:58;;;;;;;3.85;1.40;;;;;;;18.07;99.01;100269.72;6211400;23;20023;-65
2022/04/19 12:55:42;;;;;;;5.20;1.25;;;;;;;17.83;100.00;100258.22;6186580;23;20074;-64
2022/04/19 12:58:28;;;;;;;6.60;1.50;;;;;;;17.63;100.00;100241.19;6211308;23;20014;-64
2022/04/19 13:01:13;;;;;;;5.55;1.90;;;;;;;17.67;100.00;100259.78;6166752;23;20084;-64
2022/04/19 13:03:57;;;;;;;4.10;1.30;;;;;;;17.75;100.00;100244.25;6211145;23;20039;-64
2022/04/19 13:12:50;;;;;;;4.18;2.30;;;;;;;17.46;100.00;100236.53;6216353;23;20123;-64
2022/04/19 13:15:35;;;;;;;4.20;1.60;;;;;;;17.75;100.00;100244.25;6241259;23;20449;-64
2022/04/19 13:18:20;;;;;;;8.05;1.80;;;;;;;17.84;100.00;100245.66;6250507;23;20029;-64
2022/04/19 13:21:06;;;;;;;3.45;1.55;;;;;;;17.71;100.00;100214.91;6228777;23;20054;-63
2022/04/19 13:23:51;;;;;;;3.00;1.58;;;;;;;17.77;100.00;100244.19;6228785;23;20129;-62
2022/04/19 13:26:36;;;;;;;4.30;1.30;;;;;;;17.62;100.00;100245.69;6206784;23;20377;-64
2022/04/19 13:29:20;;;;;;;9.00;1.80;;;;;;;17.48;100.00;100245.38;6252378;23;20078;-63
2022/04/19 13:32:07;;;;;;;3.33;1.80;;;;;;;17.33;100.00;100210.25;6226649;23;20039;-63
2022/04/19 13:34:51;;;;;;;6.03;2.40;;;;;;;17.53;100.00;100232.66;6240988;23;20023;-63
2022/04/19 13:40:38;;;;;;;9.00;1.75;;;;;;;17.50;100.00;100232.78;6248874;23;20018;-65
2022/04/19 13:43:22;;;;;;;7.43;1.75;;;;;;;17.46;100.00;100228.50;6217605;23;20023;-67
2022/04/19 13:46:07;;;;;;;6.97;1.75;;;;;;;17.43;100.00;100220.56;6205833;23;20019;-64
2022/04/19 13:48:53;;;;;;;12.57;1.95;;;;;;;17.40;100.00;100219.75;6228669;23;20105;-65
2022/04/19 13:51:39;;;;;;;5.13;1.75;;;;;;;17.41;100.00;100205.47;6228406;23;20173;-63
2022/04/19 13:54:24;;;;;;;6.63;1.63;;;;;;;17.38;100.00;100222.53;6227198;23;20023;-70